Strona główna
METAR-TAF:

METAR-TAF

Lotnisko :

Port lotniczy Phitsanulok

Phitsanulok, Tajlandia

Szerokość geograficzna: 16-46-23N, Długość geograficzna: 100-16-56E, wysokość: 47 m

Aktualna obserwacja pogody

Raport powstał 38 minut temu, godzina 06:00 UTC
Wiatr 4 kt z kierunków zmiennych
Temperatura 33°C
Wilgotność 32%
Ciśnienie 1011 hPa
Widzialność: 5000 m
zawieja pyłowa

METAR: VTPP 280600Z VRB04KT 5000 BLDU NSC 33/14 Q1011 NOSIG

czas: 13:38 (06:38 UTC)

Prognoza

Raport powstał 1 godzina i 38 minut temu, godzina 05:00 UTC
Prognoza ważna od 28 godzina 06 UTC do 29 godzina 06 UTC
Wiatr 8 kt od południe
Widzialność: 6000 m
Mało chmury na wysokości 2500 ft
Stopniowe zmiany
od 28 godzina 22 UTC do 28 godzina 24 UTC
Widzialność: 3000 m
zamglenie
Stopniowe zmiany
od 29 godzina 04 UTC do 29 godzina 06 UTC
Widzialność: 6000 m

TAF: VTPP 280500Z 2806/2906 19008KT 6000 FEW025 BECMG 2822/2824 3000 BR BECMG 2904/2906 6000 NSW

Obserwacja i prognoza pogody dla ponad 4000 lotnisk (raport METAR i TAF).

Dostępne stacje oznaczono żółtymi i czerwonymi punktami na mapie.

Najedź kursorem aby zobaczyć nazwę stacji.

Kliknij aby zobaczyć obserwacje i prognozy pogody.

Aby zmienić mapę: kliknij na zielony przycisk z czarnym krzyżykiem, aby powiększyć; na zielony przycisk z myślnikiem, aby pomniejszyć; na zielone strzałki, aby przejść do map sąsiednich.


METAR-TAF: